createdAt,value
2023-03-25T00:00:07.292Z,0.50
2023-03-25T00:00:44.911Z,0.70
2023-03-25T00:01:18.518Z,0.50
2023-03-25T00:01:53.547Z,0.60
2023-03-25T00:02:27.615Z,0.50
2023-03-25T00:03:00.104Z,0.50
2023-03-25T00:03:37.648Z,0.40
2023-03-25T00:04:09.994Z,0.80
2023-03-25T00:04:45.005Z,0.43
2023-03-25T00:05:21.871Z,0.60
2023-03-25T00:05:57.069Z,0.60
2023-03-25T00:06:29.388Z,0.80
2023-03-25T00:07:01.863Z,0.70
2023-03-25T00:07:37.081Z,0.60
2023-03-25T00:08:09.411Z,0.60
2023-03-25T00:08:41.749Z,0.60
2023-03-25T00:09:16.863Z,0.70
2023-03-25T00:09:49.302Z,0.40
2023-03-25T00:10:24.234Z,0.60
2023-03-25T00:10:58.538Z,0.60
2023-03-25T00:11:31.030Z,0.60
2023-03-25T00:12:06.169Z,0.40
2023-03-25T00:12:38.836Z,0.40
2023-03-25T00:13:13.755Z,0.40
2023-03-25T00:13:48.699Z,0.40
2023-03-25T00:14:21.045Z,0.43
2023-03-25T00:14:55.126Z,0.40
2023-03-25T00:15:30.396Z,0.40
2023-03-25T00:16:03.577Z,0.40
2023-03-25T00:16:37.104Z,0.40
2023-03-25T00:17:14.166Z,0.40
2023-03-25T00:17:46.597Z,0.40
2023-03-25T00:18:21.919Z,0.40
2023-03-25T00:18:54.660Z,0.30
2023-03-25T00:19:27.777Z,0.40
2023-03-25T00:20:06.066Z,0.40
2023-03-25T00:20:41.788Z,0.40
2023-03-25T00:21:14.853Z,0.40
2023-03-25T00:21:50.633Z,0.40
2023-03-25T00:22:23.455Z,0.40
2023-03-25T00:22:55.915Z,0.40
2023-03-25T00:23:31.517Z,0.43
2023-03-25T00:24:04.229Z,0.40
2023-03-25T00:24:36.570Z,0.30
2023-03-25T00:25:13.848Z,0.40
2023-03-25T00:25:46.371Z,0.40
2023-03-25T00:26:18.699Z,0.40
2023-03-25T00:26:54.560Z,0.40
2023-03-25T00:27:26.920Z,0.40
2023-03-25T00:27:59.411Z,0.30
2023-03-25T00:28:36.077Z,0.40
2023-03-25T00:29:08.582Z,0.40
2023-03-25T00:29:41.866Z,0.50
2023-03-25T00:30:17.999Z,0.40
2023-03-25T00:30:50.406Z,0.30
2023-03-25T00:31:22.789Z,0.40
2023-03-25T00:31:57.798Z,0.40
2023-03-25T00:32:30.224Z,0.40
2023-03-25T00:33:03.163Z,0.40
2023-03-25T00:33:38.348Z,0.40
2023-03-25T00:34:14.654Z,0.40
2023-03-25T00:34:47.771Z,0.30
2023-03-25T00:35:24.323Z,0.33
2023-03-25T00:36:01.967Z,0.30
2023-03-25T00:36:37.803Z,0.40
2023-03-25T00:37:13.051Z,0.40
2023-03-25T00:37:46.145Z,0.40
2023-03-25T00:38:18.635Z,0.30
2023-03-25T00:38:53.635Z,0.40
2023-03-25T00:39:26.040Z,0.40
2023-03-25T00:39:58.377Z,0.33
2023-03-25T00:40:34.936Z,0.30
2023-03-25T00:41:14.569Z,0.40
2023-03-25T00:41:48.498Z,0.33
2023-03-25T00:42:26.575Z,0.30
2023-03-25T00:43:01.926Z,0.40
2023-03-25T00:43:34.267Z,0.30
2023-03-25T00:44:06.819Z,0.40
2023-03-25T00:44:41.765Z,0.40
2023-03-25T00:45:14.119Z,0.40
2023-03-25T00:45:46.598Z,0.40
2023-03-25T00:46:23.160Z,0.33
2023-03-25T00:46:55.641Z,0.40
2023-03-25T00:47:28.085Z,0.40
2023-03-25T00:48:00.687Z,0.30
2023-03-25T00:48:35.806Z,0.40
2023-03-25T00:49:08.183Z,0.40
2023-03-25T00:49:40.513Z,0.40
2023-03-25T00:50:15.896Z,0.40
2023-03-25T00:50:49.082Z,0.40
2023-03-25T00:51:24.505Z,0.40
2023-03-25T00:51:59.482Z,0.30
2023-03-25T00:52:31.860Z,0.40
2023-03-25T00:53:04.489Z,0.30
2023-03-25T00:53:40.730Z,0.40
2023-03-25T00:54:14.025Z,0.40
2023-03-25T00:54:46.734Z,0.40
2023-03-25T00:55:21.984Z,0.40
2023-03-25T00:55:58.199Z,0.40
2023-03-25T00:56:31.695Z,0.40
2023-03-25T00:57:06.931Z,0.40
2023-03-25T00:57:39.404Z,0.37
2023-03-25T00:58:11.758Z,0.40
2023-03-25T00:58:46.690Z,0.40
2023-03-25T00:59:19.032Z,0.40
2023-03-25T00:59:51.720Z,0.40
2023-03-25T01:00:26.676Z,0.40
2023-03-25T01:00:59.542Z,0.40
2023-03-25T01:01:31.929Z,0.40
2023-03-25T01:02:07.332Z,0.40
2023-03-25T01:02:39.886Z,0.40
2023-03-25T01:03:13.084Z,0.40
2023-03-25T01:03:45.586Z,0.40
2023-03-25T01:04:21.845Z,0.40
2023-03-25T01:04:55.279Z,0.40
2023-03-25T01:05:27.931Z,0.40
2023-03-25T01:06:00.249Z,0.40
2023-03-25T01:06:38.986Z,0.40
2023-03-25T01:07:12.871Z,0.50
2023-03-25T01:07:45.707Z,0.30
2023-03-25T01:08:25.707Z,0.40
2023-03-25T01:08:59.669Z,0.40
2023-03-25T01:09:32.156Z,0.40
2023-03-25T01:10:08.022Z,0.40
2023-03-25T01:10:40.486Z,0.40
2023-03-25T01:11:21.856Z,0.30
2023-03-25T01:11:55.836Z,0.40
2023-03-25T01:12:28.682Z,0.40
2023-03-25T01:13:03.664Z,0.40
2023-03-25T01:13:35.999Z,0.40
2023-03-25T01:14:12.148Z,0.30
2023-03-25T01:14:47.128Z,0.40
2023-03-25T01:15:20.587Z,0.40
2023-03-25T01:15:53.221Z,0.40
2023-03-25T01:16:28.625Z,0.40
2023-03-25T01:17:01.162Z,0.30
2023-03-25T01:17:36.361Z,0.30
2023-03-25T01:18:11.374Z,0.30
2023-03-25T01:18:43.837Z,0.40
2023-03-25T01:19:16.333Z,0.40
2023-03-25T01:19:51.444Z,0.30
2023-03-25T01:20:23.801Z,0.33
2023-03-25T01:20:56.534Z,0.40
2023-03-25T01:21:34.058Z,0.40
2023-03-25T01:22:08.994Z,0.40
2023-03-25T01:22:44.155Z,0.30
2023-03-25T01:23:16.644Z,0.30
2023-03-25T01:23:49.112Z,0.40
2023-03-25T01:24:24.070Z,0.40
2023-03-25T01:24:56.417Z,0.40
2023-03-25T01:25:28.778Z,0.40
2023-03-25T01:26:01.340Z,0.40
2023-03-25T01:26:36.912Z,0.40
2023-03-25T01:27:11.036Z,0.40
2023-03-25T01:27:43.514Z,0.30
2023-03-25T01:28:16.034Z,0.40
2023-03-25T01:28:51.574Z,0.30
2023-03-25T01:29:24.033Z,0.40
2023-03-25T01:29:56.390Z,0.43
2023-03-25T01:30:31.336Z,0.30
2023-03-25T01:31:05.170Z,0.40
2023-03-25T01:31:37.549Z,0.33
2023-03-25T01:32:12.510Z,0.40
2023-03-25T01:32:45.197Z,0.33
2023-03-25T01:33:17.866Z,0.40
2023-03-25T01:33:52.911Z,0.40
2023-03-25T01:34:26.264Z,0.40
2023-03-25T01:34:58.861Z,0.40
2023-03-25T01:35:33.806Z,0.40
2023-03-25T01:36:09.886Z,0.40
2023-03-25T01:36:46.906Z,0.40
2023-03-25T01:37:25.837Z,0.40
2023-03-25T01:37:58.214Z,0.30
2023-03-25T01:38:30.738Z,0.40
2023-03-25T01:39:06.922Z,0.40
2023-03-25T01:39:39.432Z,0.40
2023-03-25T01:40:18.333Z,0.40
2023-03-25T01:40:54.192Z,0.40
2023-03-25T01:41:29.203Z,0.30
2023-03-25T01:42:08.386Z,0.40
2023-03-25T01:42:43.361Z,0.40
2023-03-25T01:43:15.707Z,0.40
2023-03-25T01:44:02.346Z,0.40
2023-03-25T01:45:12.699Z,0.33
2023-03-25T01:45:45.547Z,0.40
2023-03-25T01:46:19.516Z,0.47
2023-03-25T01:46:56.444Z,0.50
2023-03-25T01:47:29.060Z,0.40
2023-03-25T01:48:06.705Z,0.40
2023-03-25T01:48:44.655Z,0.40
2023-03-25T01:49:21.708Z,0.60
2023-03-25T01:49:54.439Z,0.57
2023-03-25T01:50:29.960Z,0.60
2023-03-25T01:51:06.188Z,0.93
2023-03-25T01:51:41.352Z,0.70
2023-03-25T01:52:19.101Z,0.67
2023-03-25T01:52:54.151Z,0.50
2023-03-25T01:53:29.916Z,0.70
2023-03-25T01:54:02.433Z,0.70
2023-03-25T01:54:35.132Z,0.73
2023-03-25T01:55:11.344Z,0.60
2023-03-25T01:55:45.248Z,0.90
2023-03-25T01:56:22.747Z,0.50
2023-03-25T01:56:56.167Z,0.60
2023-03-25T01:57:31.340Z,0.43
2023-03-25T01:58:10.756Z,0.40
2023-03-25T01:58:44.129Z,0.50
2023-03-25T01:59:21.091Z,0.40
2023-03-25T01:59:54.809Z,0.40
2023-03-25T02:00:27.195Z,0.50
2023-03-25T02:01:02.449Z,0.40
2023-03-25T02:01:36.954Z,0.40
2023-03-25T02:02:09.989Z,0.40
2023-03-25T02:02:43.504Z,0.30
2023-03-25T02:03:19.690Z,0.40
2023-03-25T02:03:54.476Z,0.40
2023-03-25T02:04:39.403Z,0.40
2023-03-25T02:05:19.605Z,0.40
2023-03-25T02:05:56.976Z,0.30
2023-03-25T02:06:33.370Z,0.30
2023-03-25T02:07:10.468Z,0.40
2023-03-25T02:07:43.228Z,0.50
2023-03-25T02:08:19.199Z,0.30
2023-03-25T02:08:56.590Z,0.40
2023-03-25T02:09:28.974Z,0.40
2023-03-25T02:10:04.936Z,0.40
2023-03-25T02:10:40.995Z,0.40
2023-03-25T02:11:13.419Z,0.40
2023-03-25T02:11:45.867Z,0.40
2023-03-25T02:12:18.208Z,0.50
2023-03-25T02:12:53.414Z,0.40
2023-03-25T02:13:26.178Z,0.40
2023-03-25T02:14:00.973Z,0.30
2023-03-25T02:14:38.159Z,0.40
2023-03-25T02:15:14.543Z,0.40
2023-03-25T02:16:13.963Z,0.30
2023-03-25T02:16:53.946Z,0.40
2023-03-25T02:17:30.552Z,0.40
2023-03-25T02:18:19.823Z,0.40
2023-03-25T02:19:04.205Z,0.40
2023-03-25T02:20:09.438Z,0.40
2023-03-25T02:21:12.711Z,0.40
2023-03-25T02:22:05.034Z,0.43
2023-03-25T02:22:50.993Z,0.30
2023-03-25T02:23:48.798Z,0.40
2023-03-25T02:25:04.482Z,0.40
2023-03-25T02:25:51.970Z,0.30
2023-03-25T02:27:00.040Z,0.40
2023-03-25T02:27:46.262Z,0.30
2023-03-25T02:28:26.225Z,0.30
2023-03-25T02:29:07.398Z,0.40
2023-03-25T02:29:54.196Z,0.30
2023-03-25T02:31:03.630Z,0.40
2023-03-25T02:31:49.203Z,0.30
2023-03-25T02:32:34.713Z,0.40
2023-03-25T02:33:30.287Z,0.40
2023-03-25T02:34:24.420Z,0.33
2023-03-25T02:35:07.895Z,0.30
2023-03-25T02:35:53.546Z,0.40
2023-03-25T02:36:43.749Z,0.40
2023-03-25T02:37:50.382Z,0.40
2023-03-25T02:38:38.151Z,0.37
2023-03-25T02:39:13.558Z,0.40
2023-03-25T02:39:50.202Z,0.40
2023-03-25T02:40:26.842Z,0.40
2023-03-25T02:41:03.085Z,0.40
2023-03-25T02:41:44.165Z,0.30
2023-03-25T02:42:21.208Z,0.40
2023-03-25T02:42:56.184Z,0.40
2023-03-25T02:43:35.026Z,0.40
2023-03-25T02:44:12.024Z,0.40
2023-03-25T02:44:49.259Z,0.30
2023-03-25T02:45:30.127Z,0.30
2023-03-25T02:46:07.897Z,0.30
2023-03-25T02:46:42.432Z,0.30
2023-03-25T02:47:20.629Z,0.30
2023-03-25T02:47:55.486Z,0.40
2023-03-25T02:48:33.384Z,0.40
2023-03-25T02:49:10.044Z,0.30
2023-03-25T02:49:45.485Z,0.40
2023-03-25T02:50:21.915Z,0.30
2023-03-25T02:50:59.349Z,0.37
2023-03-25T02:51:34.645Z,0.30
2023-03-25T02:52:11.404Z,0.40
2023-03-25T02:52:49.035Z,0.40
2023-03-25T02:53:26.017Z,0.30
2023-03-25T02:54:03.412Z,0.50
2023-03-25T02:54:39.496Z,0.40
2023-03-25T02:55:15.207Z,0.40
2023-03-25T02:55:49.841Z,0.40
2023-03-25T02:56:27.517Z,0.40
2023-03-25T02:57:00.278Z,0.30
2023-03-25T02:57:35.233Z,0.30
2023-03-25T02:58:13.494Z,0.40
2023-03-25T02:58:47.072Z,0.40
2023-03-25T02:59:22.384Z,0.30
2023-03-25T02:59:58.306Z,0.40
2023-03-25T03:00:31.024Z,0.40
2023-03-25T03:01:03.519Z,0.40
2023-03-25T03:01:38.895Z,0.33
2023-03-25T03:02:12.436Z,0.40
2023-03-25T03:02:53.517Z,0.40
2023-03-25T03:03:29.897Z,0.30
2023-03-25T03:04:05.545Z,0.40
2023-03-25T03:04:48.501Z,0.30
2023-03-25T03:05:27.992Z,0.40
2023-03-25T03:06:01.370Z,0.30
2023-03-25T03:06:39.519Z,0.40
2023-03-25T03:07:15.098Z,0.30
2023-03-25T03:07:48.683Z,0.30
2023-03-25T03:08:42.330Z,0.30
2023-03-25T03:09:25.825Z,0.40
2023-03-25T03:10:05.347Z,0.30
2023-03-25T03:10:43.077Z,0.40
2023-03-25T03:11:20.251Z,0.40
2023-03-25T03:12:00.992Z,0.40
2023-03-25T03:12:46.900Z,0.40
2023-03-25T03:13:28.135Z,0.30
2023-03-25T03:14:11.590Z,0.40
2023-03-25T03:15:07.958Z,0.40
2023-03-25T03:15:49.791Z,0.40
2023-03-25T03:16:26.351Z,0.40
2023-03-25T03:17:04.073Z,0.40
2023-03-25T03:17:44.149Z,0.40
2023-03-25T03:18:27.384Z,0.37
2023-03-25T03:19:06.297Z,0.30
2023-03-25T03:19:46.690Z,0.30
2023-03-25T03:20:27.040Z,0.40
2023-03-25T03:21:07.430Z,0.30
2023-03-25T03:21:44.352Z,0.30
2023-03-25T03:22:30.361Z,0.30
2023-03-25T03:23:07.036Z,0.30
2023-03-25T03:23:52.020Z,0.30
2023-03-25T03:24:29.775Z,0.30
2023-03-25T03:25:03.565Z,0.40
2023-03-25T03:25:40.593Z,0.40
2023-03-25T03:26:20.196Z,0.33
2023-03-25T03:26:55.495Z,0.40
2023-03-25T03:27:34.209Z,0.30
2023-03-25T03:28:09.974Z,0.40
2023-03-25T03:28:46.984Z,0.40
2023-03-25T03:29:23.522Z,0.40
2023-03-25T03:29:58.738Z,0.30
2023-03-25T03:30:39.515Z,0.40
2023-03-25T03:31:49.708Z,0.30
2023-03-25T03:32:13.559Z,0.40
2023-03-25T03:32:50.001Z,0.37
2023-03-25T03:33:30.928Z,0.30
2023-03-25T03:34:05.883Z,0.40
2023-03-25T03:34:43.312Z,0.40
2023-03-25T03:35:21.806Z,0.40
2023-03-25T03:35:57.759Z,0.60
2023-03-25T03:36:33.326Z,0.60
2023-03-25T03:37:09.217Z,0.50
2023-03-25T03:37:44.011Z,0.63
2023-03-25T03:38:18.333Z,0.70
2023-03-25T03:38:56.333Z,0.67
2023-03-25T03:39:32.970Z,0.50
2023-03-25T03:40:07.865Z,1.07
2023-03-25T03:40:44.710Z,0.60
2023-03-25T03:41:20.117Z,0.50
2023-03-25T03:41:55.548Z,0.50
2023-03-25T03:42:33.307Z,0.40
2023-03-25T03:43:09.259Z,0.53
2023-03-25T03:43:43.561Z,0.50
2023-03-25T03:44:21.788Z,0.40
2023-03-25T03:44:56.930Z,0.40
2023-03-25T03:45:31.995Z,0.40
2023-03-25T03:46:09.611Z,0.40
2023-03-25T03:46:46.697Z,0.40
2023-03-25T03:47:21.187Z,0.33
2023-03-25T03:47:59.010Z,0.37
2023-03-25T03:48:33.554Z,0.30
2023-03-25T03:49:10.004Z,0.30
2023-03-25T03:49:47.421Z,0.40
2023-03-25T03:50:21.837Z,0.40
2023-03-25T03:50:57.153Z,0.37
2023-03-25T03:51:35.163Z,0.40
2023-03-25T03:52:09.561Z,0.30
2023-03-25T03:52:43.588Z,0.30
2023-03-25T03:53:23.643Z,0.40
2023-03-25T03:54:00.744Z,0.30
2023-03-25T03:54:39.384Z,0.40
2023-03-25T03:55:16.850Z,0.30
2023-03-25T03:55:53.381Z,0.40
2023-03-25T03:56:27.457Z,0.30
2023-03-25T03:57:05.459Z,0.30
2023-03-25T03:57:40.765Z,0.40
2023-03-25T03:58:16.522Z,0.30
2023-03-25T03:58:54.681Z,0.30
2023-03-25T03:59:34.833Z,0.40
2023-03-25T04:00:13.834Z,0.40
2023-03-25T04:00:51.200Z,0.30
2023-03-25T04:01:30.922Z,0.30
2023-03-25T04:02:06.852Z,0.30
2023-03-25T04:02:40.839Z,0.30
2023-03-25T04:03:18.669Z,0.40
2023-03-25T04:03:53.513Z,0.30
2023-03-25T04:04:27.208Z,0.33
2023-03-25T04:05:02.607Z,0.30
2023-03-25T04:05:38.417Z,0.40
2023-03-25T04:06:18.249Z,0.30
2023-03-25T04:06:59.278Z,0.40
2023-03-25T04:07:39.268Z,0.40
2023-03-25T04:08:15.360Z,0.30
2023-03-25T04:08:59.222Z,0.40
2023-03-25T04:09:41.203Z,0.30
2023-03-25T04:10:18.617Z,0.40
2023-03-25T04:10:54.510Z,0.40
2023-03-25T04:11:29.688Z,0.30
2023-03-25T04:12:10.096Z,0.33
2023-03-25T04:12:45.232Z,0.40
2023-03-25T04:13:18.309Z,0.30
2023-03-25T04:13:55.363Z,0.30
2023-03-25T04:14:27.960Z,0.40
2023-03-25T04:15:03.326Z,0.40
2023-03-25T04:15:38.866Z,0.40
2023-03-25T04:16:11.921Z,0.30
2023-03-25T04:16:45.969Z,0.40
2023-03-25T04:17:20.937Z,0.30
2023-03-25T04:17:53.415Z,0.30
2023-03-25T04:18:25.934Z,0.30
2023-03-25T04:19:01.031Z,0.40
2023-03-25T04:19:34.298Z,0.40
2023-03-25T04:20:09.349Z,0.40
2023-03-25T04:20:45.117Z,0.40
2023-03-25T04:21:17.841Z,0.30
2023-03-25T04:21:50.311Z,0.37
2023-03-25T04:22:25.507Z,0.30
2023-03-25T04:22:57.850Z,0.30
2023-03-25T04:23:30.981Z,0.30
2023-03-25T04:24:08.383Z,0.40
2023-03-25T04:24:44.264Z,0.40
2023-03-25T04:25:16.757Z,0.40
2023-03-25T04:25:53.637Z,0.30
2023-03-25T04:26:26.090Z,0.50
2023-03-25T04:26:59.893Z,0.43
2023-03-25T04:27:37.962Z,0.40
2023-03-25T04:28:13.873Z,0.50
2023-03-25T04:28:46.239Z,0.50
2023-03-25T04:29:21.304Z,0.60
2023-03-25T04:29:53.643Z,0.50
2023-03-25T04:30:26.834Z,0.60
2023-03-25T04:31:00.715Z,0.50
2023-03-25T04:31:36.048Z,0.70
2023-03-25T04:32:09.772Z,0.80
2023-03-25T04:32:42.127Z,0.87
2023-03-25T04:33:17.986Z,0.50
2023-03-25T04:33:50.813Z,0.63
2023-03-25T04:34:23.803Z,0.50
2023-03-25T04:34:58.837Z,0.50
2023-03-25T04:35:33.251Z,0.50
2023-03-25T04:36:07.014Z,0.50
2023-03-25T04:36:43.272Z,0.50
2023-03-25T04:37:15.632Z,0.50
2023-03-25T04:37:49.289Z,0.60
2023-03-25T04:38:24.530Z,0.50
2023-03-25T04:38:56.874Z,0.50
2023-03-25T04:39:30.040Z,0.40
2023-03-25T04:40:09.522Z,0.60
2023-03-25T04:40:46.804Z,0.40
2023-03-25T04:41:20.240Z,0.60
2023-03-25T04:41:56.898Z,0.50
2023-03-25T04:42:33.142Z,0.40
2023-03-25T04:43:05.907Z,0.50
2023-03-25T04:43:45.326Z,0.47
2023-03-25T04:44:18.022Z,0.50
2023-03-25T04:44:50.371Z,0.70
2023-03-25T04:45:25.656Z,0.70
2023-03-25T04:46:00.373Z,0.60
2023-03-25T04:46:33.367Z,0.50
2023-03-25T04:47:09.068Z,0.73
2023-03-25T04:47:45.077Z,0.60
2023-03-25T04:48:21.970Z,0.47
2023-03-25T04:48:57.245Z,0.50
2023-03-25T04:49:30.021Z,0.50
2023-03-25T04:50:02.381Z,0.70
2023-03-25T04:50:37.327Z,0.70
2023-03-25T04:51:12.403Z,0.53
2023-03-25T04:51:45.104Z,0.80
2023-03-25T04:52:20.315Z,0.70
2023-03-25T04:52:53.548Z,0.53
2023-03-25T04:53:26.299Z,0.77
2023-03-25T04:54:01.384Z,0.87
2023-03-25T04:54:33.710Z,0.80
2023-03-25T04:55:10.570Z,0.80
2023-03-25T04:55:48.347Z,0.50
2023-03-25T04:56:20.753Z,0.73
2023-03-25T04:56:55.729Z,0.60
2023-03-25T04:57:28.089Z,0.50
2023-03-25T04:58:00.430Z,0.47
2023-03-25T04:58:37.136Z,0.77
2023-03-25T04:59:10.351Z,0.50
2023-03-25T04:59:42.779Z,0.47
2023-03-25T05:00:19.854Z,0.50
2023-03-25T05:00:52.635Z,0.63
2023-03-25T05:01:30.980Z,0.43
2023-03-25T05:02:06.272Z,0.73
2023-03-25T05:02:38.667Z,0.53
2023-03-25T05:03:11.953Z,0.50
2023-03-25T05:03:50.441Z,0.60
2023-03-25T05:04:24.919Z,0.50
2023-03-25T05:05:02.540Z,0.50
2023-03-25T05:05:37.467Z,0.50
2023-03-25T05:06:09.871Z,0.67
2023-03-25T05:06:44.117Z,0.60
2023-03-25T05:07:19.274Z,0.60
2023-03-25T05:07:53.491Z,0.53
2023-03-25T05:08:26.022Z,0.63
2023-03-25T05:09:01.842Z,1.03
2023-03-25T05:09:34.254Z,0.70
2023-03-25T05:10:12.874Z,0.60
2023-03-25T05:10:45.274Z,0.67
2023-03-25T05:11:18.026Z,0.70
2023-03-25T05:11:53.983Z,0.60
2023-03-25T05:12:26.319Z,0.77
2023-03-25T05:12:59.319Z,0.50
2023-03-25T05:13:34.230Z,0.60
2023-03-25T05:14:06.809Z,0.60
2023-03-25T05:14:39.335Z,0.70
2023-03-25T05:15:15.214Z,0.70
2023-03-25T05:15:48.316Z,0.60
2023-03-25T05:16:20.842Z,0.70
2023-03-25T05:16:57.591Z,0.53
2023-03-25T05:17:32.802Z,0.80
2023-03-25T05:18:07.079Z,0.60
2023-03-25T05:18:42.011Z,0.60
2023-03-25T05:19:15.939Z,0.90
2023-03-25T05:19:48.255Z,0.60
2023-03-25T05:20:23.385Z,0.50
2023-03-25T05:20:57.007Z,0.70
2023-03-25T05:21:29.391Z,1.03
2023-03-25T05:22:05.228Z,0.60
2023-03-25T05:22:38.115Z,0.70
2023-03-25T05:23:16.415Z,0.50
2023-03-25T05:23:52.808Z,0.53
2023-03-25T05:24:26.431Z,0.40
2023-03-25T05:24:58.822Z,0.53
2023-03-25T05:25:37.775Z,0.50
2023-03-25T05:26:12.302Z,0.70
2023-03-25T05:26:44.636Z,0.77
2023-03-25T05:27:20.324Z,0.50
2023-03-25T05:27:52.673Z,0.70
2023-03-25T05:28:25.189Z,0.70
2023-03-25T05:29:01.798Z,0.63
2023-03-25T05:29:34.281Z,0.60
2023-03-25T05:30:08.476Z,0.60
2023-03-25T05:30:45.648Z,0.60
2023-03-25T05:31:18.101Z,0.40
2023-03-25T05:31:53.122Z,0.70
2023-03-25T05:32:26.028Z,0.70
2023-03-25T05:33:00.284Z,0.50
2023-03-25T05:33:35.309Z,0.50
2023-03-25T05:34:08.821Z,0.43
2023-03-25T05:34:41.147Z,0.50
2023-03-25T05:35:16.091Z,0.70
2023-03-25T05:35:49.317Z,0.40
2023-03-25T05:36:21.954Z,0.50
2023-03-25T05:36:56.884Z,0.40
2023-03-25T05:37:29.308Z,0.50
2023-03-25T05:38:02.101Z,0.50
2023-03-25T05:38:37.421Z,0.47
2023-03-25T05:39:11.112Z,0.60
2023-03-25T05:39:45.635Z,0.40
2023-03-25T05:40:21.622Z,0.40
2023-03-25T05:40:56.951Z,0.40
2023-03-25T05:41:33.056Z,0.30
2023-03-25T05:42:08.270Z,0.50
2023-03-25T05:42:49.174Z,0.40
2023-03-25T05:43:23.304Z,0.40
2023-03-25T05:43:58.314Z,0.50
2023-03-25T05:44:30.693Z,0.40
2023-03-25T05:45:03.206Z,0.50
2023-03-25T05:45:38.891Z,0.50
2023-03-25T05:46:11.279Z,0.50
2023-03-25T05:46:44.338Z,0.50
2023-03-25T05:47:20.425Z,0.60
2023-03-25T05:47:52.823Z,0.50
2023-03-25T05:48:25.198Z,0.40
2023-03-25T05:49:01.138Z,0.60
2023-03-25T05:49:33.509Z,0.40
2023-03-25T05:50:08.468Z,0.40
2023-03-25T05:50:44.493Z,0.57
2023-03-25T05:51:18.306Z,0.63
2023-03-25T05:51:54.317Z,0.50
2023-03-25T05:52:29.235Z,0.47
2023-03-25T05:53:01.656Z,0.50
2023-03-25T05:53:33.999Z,0.40
2023-03-25T05:54:11.506Z,0.77
2023-03-25T05:54:45.427Z,0.40
2023-03-25T05:55:20.799Z,0.43
2023-03-25T05:55:58.782Z,0.50
2023-03-25T05:56:31.140Z,0.53
2023-03-25T05:57:03.542Z,0.50
2023-03-25T05:57:38.519Z,0.40
2023-03-25T05:58:10.891Z,0.50
2023-03-25T05:58:43.339Z,0.40
2023-03-25T05:59:18.311Z,0.63
2023-03-25T05:59:51.411Z,0.50
2023-03-25T06:00:24.784Z,0.63
2023-03-25T06:00:59.947Z,0.50
2023-03-25T06:01:34.421Z,0.50
2023-03-25T06:02:07.829Z,0.60
2023-03-25T06:02:44.784Z,0.50
2023-03-25T06:03:18.990Z,0.50
2023-03-25T06:03:51.554Z,0.50
2023-03-25T06:04:26.673Z,0.50
2023-03-25T06:04:59.033Z,0.50
2023-03-25T06:05:31.865Z,0.67
2023-03-25T06:06:14.057Z,0.40
2023-03-25T06:06:46.397Z,0.60
2023-03-25T06:07:20.308Z,0.50
2023-03-25T06:07:57.585Z,0.50
2023-03-25T06:08:30.084Z,0.40
2023-03-25T06:09:03.156Z,0.50
2023-03-25T06:09:46.053Z,0.40
2023-03-25T06:10:19.055Z,0.50
2023-03-25T06:10:54.571Z,0.40
2023-03-25T06:11:29.722Z,0.50
2023-03-25T06:12:02.859Z,0.60
2023-03-25T06:12:39.044Z,0.50
2023-03-25T06:13:11.829Z,0.53
2023-03-25T06:13:49.865Z,0.50
2023-03-25T06:14:25.727Z,0.40
2023-03-25T06:14:58.049Z,0.50
2023-03-25T06:15:39.279Z,0.50
2023-03-25T06:16:18.636Z,0.50
2023-03-25T06:16:51.030Z,0.47
2023-03-25T06:17:23.544Z,0.53
2023-03-25T06:17:59.010Z,0.57
2023-03-25T06:18:31.375Z,0.40
2023-03-25T06:19:03.767Z,0.50
2023-03-25T06:19:41.989Z,0.50
2023-03-25T06:20:16.743Z,0.40
2023-03-25T06:20:49.157Z,0.53
2023-03-25T06:21:24.143Z,0.60
2023-03-25T06:21:56.526Z,0.40
2023-03-25T06:22:28.854Z,0.33
2023-03-25T06:23:04.933Z,0.30
2023-03-25T06:23:39.427Z,0.40
2023-03-25T06:24:11.780Z,0.40
2023-03-25T06:24:46.853Z,0.40
2023-03-25T06:25:20.982Z,0.40
2023-03-25T06:25:53.843Z,0.43
2023-03-25T06:26:32.963Z,0.50
2023-03-25T06:27:07.583Z,0.40
2023-03-25T06:27:40.738Z,0.40
2023-03-25T06:28:18.622Z,0.40
2023-03-25T06:28:51.361Z,0.50
2023-03-25T06:29:23.689Z,0.40
2023-03-25T06:29:58.636Z,0.40
2023-03-25T06:30:31.054Z,0.47
2023-03-25T06:31:07.312Z,0.50
2023-03-25T06:31:43.157Z,0.40
2023-03-25T06:32:15.981Z,0.50
2023-03-25T06:32:51.098Z,0.40
2023-03-25T06:33:41.998Z,0.40
2023-03-25T06:34:15.615Z,0.40
2023-03-25T06:34:47.936Z,0.60
2023-03-25T06:35:23.814Z,0.40
2023-03-25T06:35:56.246Z,0.30
2023-03-25T06:36:28.601Z,0.40
2023-03-25T06:37:03.595Z,0.50
2023-03-25T06:37:36.399Z,0.30
2023-03-25T06:38:14.208Z,0.40
2023-03-25T06:39:10.646Z,0.47
2023-03-25T06:39:49.897Z,0.50
2023-03-25T06:40:28.700Z,0.40
2023-03-25T06:41:01.964Z,0.40
2023-03-25T06:41:38.200Z,0.40
2023-03-25T06:42:24.769Z,0.40
2023-03-25T06:43:15.199Z,0.40
2023-03-25T06:44:24.672Z,0.50
2023-03-25T06:45:20.329Z,0.40
2023-03-25T06:46:08.434Z,0.50
2023-03-25T06:47:02.650Z,0.40
2023-03-25T06:47:55.655Z,0.50
2023-03-25T06:48:28.085Z,0.60
2023-03-25T06:49:03.076Z,0.70
2023-03-25T06:49:35.700Z,0.70
2023-03-25T06:50:09.108Z,0.70
2023-03-25T06:50:45.638Z,0.50
2023-03-25T06:51:18.078Z,0.80
2023-03-25T06:51:50.657Z,0.70
2023-03-25T06:52:25.779Z,0.70
2023-03-25T06:52:58.167Z,0.73
2023-03-25T06:53:30.564Z,0.73
2023-03-25T06:54:05.533Z,0.80
2023-03-25T06:54:37.989Z,1.00
2023-03-25T06:55:10.852Z,1.53
2023-03-25T06:55:46.182Z,1.00
2023-03-25T06:56:18.735Z,1.30
2023-03-25T06:56:56.315Z,1.40
2023-03-25T06:57:28.647Z,1.37
2023-03-25T06:58:01.113Z,1.97
2023-03-25T06:58:37.462Z,2.53
2023-03-25T06:59:09.802Z,2.17
2023-03-25T06:59:42.272Z,2.10
2023-03-25T07:00:20.561Z,2.07
2023-03-25T07:00:54.252Z,1.77
2023-03-25T07:01:26.671Z,1.70
2023-03-25T07:02:01.890Z,1.60
2023-03-25T07:02:34.303Z,1.43
2023-03-25T07:03:06.695Z,1.50
2023-03-25T07:03:41.734Z,1.30
2023-03-25T07:04:14.058Z,1.17
2023-03-25T07:04:46.446Z,1.87
2023-03-25T07:05:21.660Z,1.00
2023-03-25T07:05:54.054Z,1.33
2023-03-25T07:06:26.402Z,1.03
2023-03-25T07:07:01.319Z,1.43
2023-03-25T07:07:33.772Z,1.10
2023-03-25T07:08:06.377Z,1.17
2023-03-25T07:08:41.352Z,1.40
2023-03-25T07:09:13.711Z,1.70
2023-03-25T07:09:46.060Z,1.47
2023-03-25T07:10:21.321Z,2.20
2023-03-25T07:10:53.691Z,1.80
2023-03-25T07:11:27.420Z,1.87
2023-03-25T07:12:06.942Z,2.10
2023-03-25T07:12:40.968Z,1.70
2023-03-25T07:13:13.345Z,1.63
2023-03-25T07:13:48.274Z,1.37
2023-03-25T07:14:20.697Z,1.00
2023-03-25T07:14:53.155Z,1.10
2023-03-25T07:15:28.260Z,1.23
2023-03-25T07:16:01.123Z,1.40
2023-03-25T07:16:34.065Z,1.17
2023-03-25T07:17:09.290Z,1.00
2023-03-25T07:17:43.266Z,1.00
2023-03-25T07:18:15.683Z,1.10
2023-03-25T07:18:50.726Z,0.77
2023-03-25T07:19:23.355Z,0.83
2023-03-25T07:19:55.858Z,0.70
2023-03-25T07:20:30.845Z,0.67
2023-03-25T07:21:03.397Z,0.50
2023-03-25T07:21:35.732Z,0.50
2023-03-25T07:22:10.650Z,0.60
2023-03-25T07:22:42.983Z,0.60
2023-03-25T07:23:15.341Z,0.50
2023-03-25T07:23:50.478Z,0.60
2023-03-25T07:24:22.825Z,0.90
2023-03-25T07:24:55.188Z,0.67
2023-03-25T07:25:30.137Z,0.80
2023-03-25T07:26:02.487Z,0.50
2023-03-25T07:26:34.863Z,0.60
2023-03-25T07:27:13.654Z,0.60
2023-03-25T07:27:49.410Z,0.47
2023-03-25T07:28:24.138Z,0.40
2023-03-25T07:28:59.079Z,0.50
2023-03-25T07:29:31.882Z,0.50
2023-03-25T07:30:04.992Z,0.50
2023-03-25T07:30:39.922Z,0.30
2023-03-25T07:31:13.335Z,0.50
2023-03-25T07:31:46.950Z,0.40
2023-03-25T07:32:22.166Z,0.40
2023-03-25T07:32:54.568Z,0.40
2023-03-25T07:33:26.961Z,0.57
2023-03-25T07:34:03.093Z,0.50
2023-03-25T07:34:35.703Z,0.60
2023-03-25T07:35:09.662Z,0.50
2023-03-25T07:35:44.673Z,0.63
2023-03-25T07:36:17.821Z,0.30
2023-03-25T07:36:52.762Z,0.40
2023-03-25T07:37:25.132Z,0.50
2023-03-25T07:37:57.497Z,0.40
2023-03-25T07:38:32.553Z,0.60
2023-03-25T07:39:04.905Z,0.50
2023-03-25T07:39:37.247Z,0.40
2023-03-25T07:40:13.261Z,0.60
2023-03-25T07:40:50.041Z,0.60
2023-03-25T07:41:22.953Z,0.60
2023-03-25T07:42:23.290Z,0.57
2023-03-25T07:43:07.630Z,0.60
2023-03-25T07:43:49.946Z,0.40
2023-03-25T07:44:31.226Z,0.50
2023-03-25T07:45:03.743Z,0.40
2023-03-25T07:45:43.834Z,0.40
2023-03-25T07:46:16.906Z,0.30
2023-03-25T07:46:49.516Z,0.40
2023-03-25T07:47:24.517Z,0.40
2023-03-25T07:47:56.910Z,0.50
2023-03-25T07:48:29.397Z,0.50
2023-03-25T07:49:04.332Z,0.40
2023-03-25T07:49:36.653Z,0.40
2023-03-25T07:50:10.022Z,0.40
2023-03-25T07:50:45.914Z,0.40
2023-03-25T07:51:18.285Z,0.53
2023-03-25T07:51:50.616Z,0.40
2023-03-25T07:52:25.545Z,0.40
2023-03-25T07:52:57.898Z,0.50
2023-03-25T07:53:32.890Z,0.50
2023-03-25T07:54:06.399Z,0.40
2023-03-25T07:54:38.876Z,0.40
2023-03-25T07:55:13.952Z,0.40
2023-03-25T07:55:46.705Z,0.40
2023-03-25T07:56:19.060Z,0.50
2023-03-25T07:56:55.735Z,0.40
2023-03-25T07:57:30.709Z,0.50